Time;durP1;ratioP1;P1;durP2;ratioP2;P2;SDS_P1;SDS_P2;PMS_P1;PMS_P2;Temp;Humidity;BMP_temperature;BMP_pressure;BME280_temperature;BME280_humidity;BME280_pressure;Samples;Min_cycle;Max_cycle;Signal;HPM_P1;HPM_P2
2024/01/02 00:01:24;;;;;;;;;;;;;;;11.80;57.87;99172.28;4962993;28;6874;-76
2024/01/02 00:03:50;;;;;;;;;;;;;;;11.79;57.92;99157.72;4963878;28;7153;-75
2024/01/02 00:06:16;;;;;;;;;;;;;;;11.77;57.80;99155.94;4968053;28;7235;-75
2024/01/02 00:08:42;;;;;;;;;;;;;;;11.76;58.43;99144.81;4969400;28;6760;-75
2024/01/02 00:11:09;;;;;;;;;;;;;;;11.75;57.99;99142.22;4971087;28;6796;-75
2024/01/02 00:13:35;;;;;;;;;;;;;;;11.75;58.66;99142.22;4968960;28;6980;-75
2024/01/02 00:16:00;;;;;;;;;;;;;;;11.74;58.28;99131.06;4968997;28;7125;-75
2024/01/02 00:18:26;;;;;;;;;;;;;;;11.74;58.44;99127.66;4967344;28;6780;-75
2024/01/02 00:20:52;;;;;;;;;;;;;;;11.72;58.39;99109.66;4967710;28;6764;-75
2024/01/02 00:23:18;;;;;;;;;;;;;;;11.72;59.36;99104.50;4970424;28;7145;-75
2024/01/02 00:25:43;;;;;;;;;;;;;;;11.71;59.10;99094.19;4972518;28;6787;-75
2024/01/02 00:28:11;;;;;;;;;;;;;;;11.70;58.63;99088.22;4972220;28;7168;-75
2024/01/02 00:30:37;;;;;;;;;;;;;;;11.70;59.41;99070.25;4971477;28;7278;-75
2024/01/02 00:33:03;;;;;;;;;;;;;;;11.69;59.54;99070.22;4973846;28;7007;-75
2024/01/02 00:35:29;;;;;;;;;;;;;;;11.69;59.11;99071.09;4968253;28;6812;-75
2024/01/02 00:37:55;;;;;;;;;;;;;;;11.67;58.88;99044.50;4973218;28;6978;-75
2024/01/02 00:40:21;;;;;;;;;;;;;;;11.65;60.01;99048.72;4971013;28;7172;-74
2024/01/02 00:42:46;;;;;;;;;;;;;;;11.64;59.21;99047.88;4972021;28;6768;-74
2024/01/02 00:45:12;;;;;;;;;;;;;;;11.64;59.33;99029.91;4970561;28;7008;-74
2024/01/02 00:47:37;;;;;;;;;;;;;;;11.63;60.06;99027.31;4970179;28;6784;-74
2024/01/02 00:50:04;;;;;;;;;;;;;;;11.60;60.00;99010.13;4954897;28;7337;-74
2024/01/02 00:52:29;;;;;;;;;;;;;;;11.59;59.78;99007.53;4971965;28;6956;-74
2024/01/02 00:54:55;;;;;;;;;;;;;;;11.59;59.94;98992.13;4970614;28;6932;-74
2024/01/02 00:57:21;;;;;;;;;;;;;;;11.56;60.48;98977.56;4969853;28;6756;-74
2024/01/02 00:59:46;;;;;;;;;;;;;;;11.52;60.53;98963.81;4966490;28;6808;-73
2024/01/02 01:02:12;;;;;;;;;;;;;;;11.53;60.18;98968.09;4956421;28;6872;-75
2024/01/02 01:04:42;;;;;;;;;;;;;;;11.52;60.35;98945.84;4947660;28;6947;-74
2024/01/02 01:07:08;;;;;;;;;;;;;;;11.49;60.30;98932.97;4939324;28;7086;-75
2024/01/02 01:09:34;;;;;;;;;;;;;;;11.49;60.29;98926.94;4949392;28;7154;-74
2024/01/02 01:12:00;;;;;;;;;;;;;;;11.47;60.59;98921.78;4946468;28;6968;-75
2024/01/02 01:14:25;;;;;;;;;;;;;;;11.46;60.80;98896.09;4941438;28;7297;-75
2024/01/02 01:16:51;;;;;;;;;;;;;;;11.43;60.68;98894.34;4925543;28;7003;-75
2024/01/02 01:19:16;;;;;;;;;;;;;;;11.42;60.89;98884.91;4953420;28;7074;-75
2024/01/02 01:21:42;;;;;;;;;;;;;;;11.41;60.65;98869.47;4951884;28;6941;-75
2024/01/02 01:24:08;;;;;;;;;;;;;;;11.39;60.85;98862.63;4937473;28;6968;-75
2024/01/02 01:26:33;;;;;;;;;;;;;;;11.38;60.49;98849.75;4951002;28;6929;-75
2024/01/02 01:28:59;;;;;;;;;;;;;;;11.37;60.42;98845.47;4952000;28;6930;-75
2024/01/02 01:31:24;;;;;;;;;;;;;;;11.35;60.30;98834.31;4950188;28;6776;-75
2024/01/02 01:33:50;;;;;;;;;;;;;;;11.34;60.16;98840.28;4928172;28;6764;-75
2024/01/02 01:36:16;;;;;;;;;;;;;;;11.32;60.73;98841.97;4954366;28;6975;-75
2024/01/02 01:38:41;;;;;;;;;;;;;;;11.30;60.85;98831.66;4936122;28;7195;-75
2024/01/02 01:41:07;;;;;;;;;;;;;;;11.30;60.62;98823.09;4954023;28;6964;-75
2024/01/02 01:43:32;;;;;;;;;;;;;;;11.28;60.59;98801.69;4946048;28;6764;-75
2024/01/02 01:45:58;;;;;;;;;;;;;;;11.28;60.25;98799.09;4952688;28;6986;-75
2024/01/02 01:48:24;;;;;;;;;;;;;;;11.23;60.64;98784.50;4951406;28;6923;-74
2024/01/02 01:50:50;;;;;;;;;;;;;;;11.20;60.41;98770.75;4944731;28;7012;-75
2024/01/02 01:53:17;;;;;;;;;;;;;;;11.18;60.46;98765.59;4951322;28;6988;-74
2024/01/02 01:55:43;;;;;;;;;;;;;;;11.15;60.32;98739.03;4948600;28;7339;-75
2024/01/02 01:58:10;;;;;;;;;;;;;;;11.13;60.67;98736.44;4949961;28;6780;-74
2024/01/02 02:00:36;;;;;;;;;;;;;;;11.11;60.83;98733.00;4928589;28;7166;-75
2024/01/02 02:03:02;;;;;;;;;;;;;;;11.10;60.73;98721.00;4944798;28;6961;-76
2024/01/02 02:05:28;;;;;;;;;;;;;;;11.08;60.45;98718.41;4945668;28;6964;-75
2024/01/02 02:07:55;;;;;;;;;;;;;;;11.07;60.83;98716.69;4949354;28;6780;-75
2024/01/02 02:10:21;;;;;;;;;;;;;;;11.08;60.51;98697.03;4947700;28;6977;-75
2024/01/02 02:12:47;;;;;;;;;;;;;;;11.06;61.02;98689.31;4949235;28;8645;-76
2024/01/02 02:15:13;;;;;;;;;;;;;;;11.08;60.63;98676.50;4949636;28;6788;-75
2024/01/02 02:17:39;;;;;;;;;;;;;;;11.07;60.76;98659.41;4952706;28;7470;-76
2024/01/02 02:20:05;;;;;;;;;;;;;;;11.07;60.54;98642.34;4948346;28;6953;-76
2024/01/02 02:22:42;;;;;;;;;;;;;;;11.07;61.11;98638.91;4951776;28;6796;-75
2024/01/02 02:25:08;;;;;;;;;;;;;;;11.08;61.26;98645.75;4939969;28;6825;-75
2024/01/02 02:27:34;;;;;;;;;;;;;;;11.10;61.28;98639.81;4948203;28;6799;-75
2024/01/02 02:30:00;;;;;;;;;;;;;;;11.11;60.94;98610.78;4947308;28;6780;-75
2024/01/02 02:32:25;;;;;;;;;;;;;;;11.16;61.54;98623.69;4935293;28;6972;-75
2024/01/02 02:34:51;;;;;;;;;;;;;;;11.20;61.08;98622.91;4944068;28;6965;-75
2024/01/02 02:37:17;;;;;;;;;;;;;;;11.24;61.27;98627.25;4947919;28;7048;-76
2024/01/02 02:39:43;;;;;;;;;;;;;;;11.29;61.19;98593.09;4932643;28;6994;-76
2024/01/02 02:42:09;;;;;;;;;;;;;;;11.32;61.35;98596.56;4949115;28;6946;-76
2024/01/02 02:44:34;;;;;;;;;;;;;;;11.38;61.51;98595.81;4939291;28;7180;-76
2024/01/02 02:47:00;;;;;;;;;;;;;;;11.43;61.79;98583.94;4934813;28;8544;-75
2024/01/02 02:49:26;;;;;;;;;;;;;;;11.49;61.54;98565.19;4948065;28;6990;-75
2024/01/02 02:51:52;;;;;;;;;;;;;;;11.56;61.64;98568.72;4950808;28;7214;-75
2024/01/02 02:54:18;;;;;;;;;;;;;;;11.60;61.48;98555.09;4930416;28;8581;-75
2024/01/02 02:56:45;;;;;;;;;;;;;;;11.66;61.60;98544.91;4952019;28;7035;-75
2024/01/02 02:59:11;;;;;;;;;;;;;;;11.69;61.97;98537.28;4943846;28;8230;-75
2024/01/02 03:01:36;;;;;;;;;;;;;;;11.74;61.55;98534.78;4950880;28;6951;-75
2024/01/02 03:04:02;;;;;;;;;;;;;;;11.76;61.92;98512.53;4953375;28;6949;-75
2024/01/02 03:06:28;;;;;;;;;;;;;;;11.78;62.07;98511.72;4933767;28;8055;-74
2024/01/02 03:08:54;;;;;;;;;;;;;;;11.80;62.51;98506.59;4946938;28;7004;-75
2024/01/02 03:11:20;;;;;;;;;;;;;;;11.85;61.99;98493.81;4947897;28;6820;-75
2024/01/02 03:13:45;;;;;;;;;;;;;;;11.87;62.61;98490.44;4949662;28;7086;-75
2024/01/02 03:16:12;;;;;;;;;;;;;;;11.93;62.54;98474.25;4949727;28;6956;-75
2024/01/02 03:18:38;;;;;;;;;;;;;;;11.95;61.82;98452.88;4933621;28;6788;-75
2024/01/02 03:21:05;;;;;;;;;;;;;;;11.99;62.29;98465.75;4950512;28;6957;-75
2024/01/02 03:23:31;;;;;;;;;;;;;;;12.01;61.55;98451.22;4946699;28;7197;-77
2024/01/02 03:25:56;;;;;;;;;;;;;;;12.04;62.42;98430.75;4946362;28;7089;-76
2024/01/02 03:28:22;;;;;;;;;;;;;;;12.06;62.32;98427.34;4948097;28;6764;-76
2024/01/02 03:30:48;;;;;;;;;;;;;;;12.09;62.22;98408.53;4951366;28;6788;-76
2024/01/02 03:33:14;;;;;;;;;;;;;;;12.12;61.91;98408.59;4949749;28;7169;-75
2024/01/02 03:35:39;;;;;;;;;;;;;;;12.17;62.29;98406.06;4946682;28;6780;-76
2024/01/02 03:38:05;;;;;;;;;;;;;;;12.19;62.43;98384.66;4946701;28;6975;-76
2024/01/02 03:40:31;;;;;;;;;;;;;;;12.21;62.38;98370.13;4943155;28;6773;-75
2024/01/02 03:42:56;;;;;;;;;;;;;;;12.24;62.37;98366.72;4942331;28;6983;-77
2024/01/02 03:45:22;;;;;;;;;;;;;;;12.27;62.63;98377.06;4945121;28;7186;-76
2024/01/02 03:47:48;;;;;;;;;;;;;;;12.31;62.28;98377.91;4948360;28;7211;-76
2024/01/02 03:50:14;;;;;;;;;;;;;;;12.33;63.05;98376.25;4943772;28;7264;-76
2024/01/02 03:52:40;;;;;;;;;;;;;;;12.38;62.21;98353.16;4950858;28;6796;-76
2024/01/02 03:55:06;;;;;;;;;;;;;;;12.41;62.57;98346.34;4952250;28;6860;-76
2024/01/02 03:57:34;;;;;;;;;;;;;;;12.44;62.67;98346.34;4952439;28;9811;-76
2024/01/02 04:00:00;;;;;;;;;;;;;;;12.48;63.30;98349.81;4950546;28;6800;-75
2024/01/02 04:02:25;;;;;;;;;;;;;;;12.53;62.74;98326.72;4948549;28;6980;-75
2024/01/02 04:04:51;;;;;;;;;;;;;;;12.58;62.79;98299.31;4953441;28;7110;-75
2024/01/02 04:07:16;;;;;;;;;;;;;;;12.62;63.29;98304.50;4952923;28;6814;-76
2024/01/02 04:09:42;;;;;;;;;;;;;;;12.66;63.60;98313.09;4955169;28;7444;-76
2024/01/02 04:12:08;;;;;;;;;;;;;;;12.72;63.70;98312.25;4950282;28;6963;-75
2024/01/02 04:14:33;;;;;;;;;;;;;;;12.78;63.38;98281.47;4921786;28;7070;-76
2024/01/02 04:16:59;;;;;;;;;;;;;;;12.83;63.90;98274.63;4951159;28;7186;-76
2024/01/02 04:19:24;;;;;;;;;;;;;;;12.91;62.96;98283.22;4940033;28;7293;-76
2024/01/02 04:21:50;;;;;;;;;;;;;;;12.97;63.74;98279.81;4948200;28;6772;-76
2024/01/02 04:24:15;;;;;;;;;;;;;;;13.03;63.01;98287.56;4942460;28;6768;-77
2024/01/02 04:26:41;;;;;;;;;;;;;;;13.10;63.27;98257.59;4945517;28;6765;-77
2024/01/02 04:29:07;;;;;;;;;;;;;;;13.17;63.21;98245.59;4949254;28;7020;-77
2024/01/02 04:31:32;;;;;;;;;;;;;;;13.23;63.40;98273.03;4950696;28;7363;-76
2024/01/02 04:33:58;;;;;;;;;;;;;;;13.28;63.44;98279.06;4966178;28;9806;-74
2024/01/02 04:36:27;;;;;;;;;;;;;;;13.32;62.77;98271.38;4961030;28;7167;-74
2024/01/02 04:38:52;;;;;;;;;;;;;;;13.38;63.48;98267.97;4971399;28;6971;-73
2024/01/02 04:41:19;;;;;;;;;;;;;;;13.45;63.01;98258.56;4960270;28;7136;-74
2024/01/02 04:43:45;;;;;;;;;;;;;;;13.52;62.95;98264.56;4957442;28;6960;-75
2024/01/02 04:46:11;;;;;;;;;;;;;;;13.54;62.15;98261.16;4970173;28;6896;-75
2024/01/02 04:48:37;;;;;;;;;;;;;;;13.56;62.29;98235.44;4966110;28;6842;-75
2024/01/02 04:51:03;;;;;;;;;;;;;;;13.56;62.78;98261.16;4971855;28;7206;-74
2024/01/02 04:53:28;;;;;;;;;;;;;;;13.57;62.16;98271.47;4963440;28;7253;-75
2024/01/02 04:55:54;;;;;;;;;;;;;;;13.58;63.00;98274.88;4966221;28;6792;-74
2024/01/02 04:58:20;;;;;;;;;;;;;;;13.58;62.48;98275.75;4962970;28;6785;-73
2024/01/02 05:00:46;;;;;;;;;;;;;;;13.58;62.80;98262.03;4960408;28;6975;-74
2024/01/02 05:03:12;;;;;;;;;;;;;;;13.60;62.83;98256.03;4962551;28;7175;-74
2024/01/02 05:05:38;;;;;;;;;;;;;;;13.63;62.72;98246.59;4934780;28;6987;-74
2024/01/02 05:08:03;;;;;;;;;;;;;;;13.65;62.97;98286.91;4957891;28;6923;-74
2024/01/02 05:10:29;;;;;;;;;;;;;;;13.66;63.47;98273.19;4951409;28;7046;-73
2024/01/02 05:12:55;;;;;;;;;;;;;;;13.68;63.16;98274.03;4954170;28;6935;-75
2024/01/02 05:15:20;;;;;;;;;;;;;;;13.70;63.31;98268.91;4957882;28;7444;-75
2024/01/02 05:17:47;;;;;;;;;;;;;;;13.71;63.68;98263.78;4964911;28;6842;-74
2024/01/02 05:20:12;;;;;;;;;;;;;;;13.73;63.68;98246.59;4972452;28;7134;-75
2024/01/02 05:22:39;;;;;;;;;;;;;;;13.75;63.00;98262.91;4964113;28;6802;-74
2024/01/02 05:25:06;;;;;;;;;;;;;;;13.75;63.07;98273.19;4968325;28;6952;-76
2024/01/02 05:27:32;;;;;;;;;;;;;;;13.78;63.06;98300.66;4964350;28;6976;-75
2024/01/02 05:29:58;;;;;;;;;;;;;;;13.80;63.16;98296.38;4965001;28;7642;-74
2024/01/02 05:32:23;;;;;;;;;;;;;;;13.82;63.65;98302.38;4969394;28;6788;-74
2024/01/02 05:34:49;;;;;;;;;;;;;;;13.86;63.98;98298.09;4968855;28;6803;-74
2024/01/02 05:37:16;;;;;;;;;;;;;;;13.88;63.83;98289.53;4965212;28;6962;-74
2024/01/02 05:39:41;;;;;;;;;;;;;;;13.91;63.75;98298.97;4966087;28;6816;-75
2024/01/02 05:42:07;;;;;;;;;;;;;;;13.91;63.92;98304.13;4951317;28;6927;-74
2024/01/02 05:44:33;;;;;;;;;;;;;;;13.93;63.50;98293.81;4973752;28;6768;-75
2024/01/02 05:46:58;;;;;;;;;;;;;;;13.93;63.80;98286.94;4963891;28;7181;-75
2024/01/02 05:49:24;;;;;;;;;;;;;;;13.95;64.05;98300.69;4958176;28;6924;-75
2024/01/02 05:51:50;;;;;;;;;;;;;;;13.97;63.37;98296.38;4976429;28;6748;-74
2024/01/02 05:54:15;;;;;;;;;;;;;;;14.01;63.70;98289.53;4977808;28;7185;-75
2024/01/02 05:56:41;;;;;;;;;;;;;;;14.02;63.62;98307.56;4974792;28;7067;-74
2024/01/02 05:59:06;;;;;;;;;;;;;;;14.05;64.43;98303.25;4979022;28;6752;-75
2024/01/02 06:01:32;;;;;;;;;;;;;;;14.07;63.77;98304.13;4976074;28;6957;-75
2024/01/02 06:03:57;;;;;;;;;;;;;;;14.10;63.77;98293.78;4965511;28;7019;-75
2024/01/02 06:06:23;;;;;;;;;;;;;;;14.13;64.11;98311.84;4984646;28;6968;-75
2024/01/02 06:08:49;;;;;;;;;;;;;;;14.15;64.31;98307.56;4982146;28;6812;-75
2024/01/02 06:11:14;;;;;;;;;;;;;;;14.18;63.95;98311.84;4981388;28;6917;-75
2024/01/02 06:13:40;;;;;;;;;;;;;;;14.22;63.79;98319.59;4981911;28;6760;-75
2024/01/02 06:16:10;;;;;;;;;;;;;;;14.24;63.65;98323.00;4977983;28;6833;-75
2024/01/02 06:18:36;;;;;;;;;;;;;;;14.27;63.35;98333.31;4981909;28;6985;-75
2024/01/02 06:21:04;;;;;;;;;;;;;;;14.30;63.60;98322.16;4976866;28;7042;-75
2024/01/02 06:23:32;;;;;;;;;;;;;;;14.33;63.99;98334.19;4976730;28;6994;-75
2024/01/02 06:25:58;;;;;;;;;;;;;;;14.36;64.12;98334.16;4973855;28;6975;-75
2024/01/02 06:28:24;;;;;;;;;;;;;;;14.38;63.75;98345.31;4974344;28;6974;-75
2024/01/02 06:30:50;;;;;;;;;;;;;;;14.38;64.28;98330.72;4969413;28;7246;-74
2024/01/02 06:33:16;;;;;;;;;;;;;;;14.39;64.10;98332.44;4978684;28;6850;-74
2024/01/02 06:35:41;;;;;;;;;;;;;;;14.41;63.94;98350.50;4970853;28;6834;-74
2024/01/02 06:38:07;;;;;;;;;;;;;;;14.43;63.87;98343.63;4975831;28;6997;-75
2024/01/02 06:40:33;;;;;;;;;;;;;;;14.46;63.98;98348.75;4971055;28;7159;-75
2024/01/02 06:42:58;;;;;;;;;;;;;;;14.49;64.08;98358.22;4975553;28;7703;-75
2024/01/02 06:45:24;;;;;;;;;;;;;;;14.50;64.53;98363.38;4977460;28;6768;-75
2024/01/02 06:47:49;;;;;;;;;;;;;;;14.53;64.37;98349.59;4973822;28;6848;-75
2024/01/02 06:50:16;;;;;;;;;;;;;;;14.57;64.20;98366.81;4978817;28;6838;-74
2024/01/02 06:52:42;;;;;;;;;;;;;;;14.59;64.42;98359.94;4969673;28;6796;-77
2024/01/02 06:55:08;;;;;;;;;;;;;;;14.60;64.10;98356.47;4952170;28;6825;-77
2024/01/02 06:57:33;;;;;;;;;;;;;;;14.62;64.44;98353.91;4950124;28;7272;-78
2024/01/02 06:59:59;;;;;;;;;;;;;;;14.65;64.15;98359.06;4945066;28;7396;-77
2024/01/02 07:02:24;;;;;;;;;;;;;;;14.65;63.92;98359.06;4952704;28;7174;-76
2024/01/02 07:04:50;;;;;;;;;;;;;;;14.69;64.40;98345.31;4953240;28;7072;-76
2024/01/02 07:07:17;;;;;;;;;;;;;;;14.69;64.73;98358.22;4951904;28;7033;-76
2024/01/02 07:09:42;;;;;;;;;;;;;;;14.71;64.32;98365.06;4951037;28;6780;-76
2024/01/02 07:12:08;;;;;;;;;;;;;;;14.73;64.15;98362.50;4953482;28;6764;-77
2024/01/02 07:14:34;;;;;;;;;;;;;;;14.76;64.59;98367.66;4952466;28;6832;-75
2024/01/02 07:16:59;;;;;;;;;;;;;;;14.77;63.99;98359.06;4947421;28;7317;-75
2024/01/02 07:19:25;;;;;;;;;;;;;;;14.78;64.27;98353.06;4950486;28;6791;-76
2024/01/02 07:21:51;;;;;;;;;;;;;;;14.80;64.38;98371.97;4948619;28;7421;-77
2024/01/02 07:24:16;;;;;;;;;;;;;;;14.81;64.17;98380.53;4953899;28;6954;-76
2024/01/02 07:26:42;;;;;;;;;;;;;;;14.82;64.18;98380.56;4951777;28;8505;-76
2024/01/02 07:29:08;;;;;;;;;;;;;;;14.85;63.97;98382.28;4931132;28;6784;-76
2024/01/02 07:31:35;;;;;;;;;;;;;;;14.86;64.36;98382.25;4950940;28;7251;-76
2024/01/02 07:34:01;;;;;;;;;;;;;;;14.87;64.60;98383.13;4956153;28;7208;-76
2024/01/02 07:36:27;;;;;;;;;;;;;;;14.88;63.92;98386.56;4953106;28;6792;-76
2024/01/02 07:38:53;;;;;;;;;;;;;;;14.88;64.39;98382.25;4933223;28;6788;-76
2024/01/02 07:41:19;;;;;;;;;;;;;;;14.89;64.47;98383.13;4956291;28;6933;-77
2024/01/02 07:43:44;;;;;;;;;;;;;;;14.90;64.45;98395.16;4951010;28;7203;-77
2024/01/02 07:46:10;;;;;;;;;;;;;;;14.91;64.68;98391.72;4952409;28;7861;-76
2024/01/02 07:48:36;;;;;;;;;;;;;;;14.92;64.33;98388.28;4952384;28;7183;-76
2024/01/02 07:51:02;;;;;;;;;;;;;;;14.94;64.47;98413.22;4955104;28;6796;-76
2024/01/02 07:53:28;;;;;;;;;;;;;;;14.95;64.18;98416.63;4953242;28;6824;-76
2024/01/02 07:55:54;;;;;;;;;;;;;;;14.97;64.92;98415.78;4951238;28;7059;-77
2024/01/02 07:58:19;;;;;;;;;;;;;;;14.99;64.92;98402.88;4952040;28;6784;-76
2024/01/02 08:00:45;;;;;;;;;;;;;;;15.01;64.23;98398.56;4944336;28;7059;-76
2024/01/02 08:03:11;;;;;;;;;;;;;;;15.00;64.76;98399.44;4952220;28;7259;-76
2024/01/02 08:05:36;;;;;;;;;;;;;;;15.02;64.17;98415.78;4947451;28;6967;-76
2024/01/02 08:08:03;;;;;;;;;;;;;;;15.04;64.16;98416.63;4951774;28;7075;-76
2024/01/02 08:10:28;;;;;;;;;;;;;;;15.08;64.31;98425.22;4950097;28;7253;-76
2024/01/02 08:12:54;;;;;;;;;;;;;;;15.09;64.44;98414.91;4947669;28;6981;-76
2024/01/02 08:15:20;;;;;;;;;;;;;;;15.10;64.38;98414.03;4946490;28;6961;-77
2024/01/02 08:17:46;;;;;;;;;;;;;;;15.10;64.17;98408.88;4949608;28;8615;-77
2024/01/02 08:20:12;;;;;;;;;;;;;;;15.13;64.42;98418.34;4955072;28;6857;-76
2024/01/02 08:22:37;;;;;;;;;;;;;;;15.19;64.25;98435.53;4951953;28;6836;-75
2024/01/02 08:25:03;;;;;;;;;;;;;;;15.23;64.10;98419.16;4922727;28;6987;-76
2024/01/02 08:27:29;;;;;;;;;;;;;;;15.30;64.21;98405.38;4948629;28;6845;-76
2024/01/02 08:29:55;;;;;;;;;;;;;;;15.35;63.99;98421.69;4949504;28;6788;-77
2024/01/02 08:32:22;;;;;;;;;;;;;;;15.40;63.42;98416.50;4945906;28;7229;-75
2024/01/02 08:34:49;;;;;;;;;;;;;;;15.43;63.15;98432.00;4950236;28;7145;-75
2024/01/02 08:37:15;;;;;;;;;;;;;;;15.45;63.26;98444.91;4950384;28;6800;-77
2024/01/02 08:39:40;;;;;;;;;;;;;;;15.44;63.08;98438.00;4949592;28;6949;-77
2024/01/02 08:42:06;;;;;;;;;;;;;;;15.43;63.06;98428.56;4939289;28;7247;-76
2024/01/02 08:44:33;;;;;;;;;;;;;;;15.43;63.29;98441.47;4935220;28;7294;-75
2024/01/02 08:46:58;;;;;;;;;;;;;;;15.41;63.01;98428.59;4949080;28;7171;-77
2024/01/02 08:49:24;;;;;;;;;;;;;;;15.43;63.09;98444.03;4950675;28;7204;-77
2024/01/02 08:51:50;;;;;;;;;;;;;;;15.43;63.23;98438.88;4951840;28;7135;-76
2024/01/02 08:54:15;;;;;;;;;;;;;;;15.45;63.11;98443.19;4946862;28;6808;-77
2024/01/02 08:56:41;;;;;;;;;;;;;;;15.46;63.02;98429.41;4951338;28;6784;-77
2024/01/02 08:59:06;;;;;;;;;;;;;;;15.49;62.85;98436.28;4949706;28;6845;-76
2024/01/02 09:01:32;;;;;;;;;;;;;;;15.53;62.72;98435.41;4953543;28;7079;-76
2024/01/02 09:03:58;;;;;;;;;;;;;;;15.56;62.96;98427.66;4956857;28;7172;-76
2024/01/02 09:06:24;;;;;;;;;;;;;;;15.59;62.55;98427.66;4955979;28;6780;-77
2024/01/02 09:08:50;;;;;;;;;;;;;;;15.65;62.32;98422.47;4949613;28;6801;-77
2024/01/02 09:11:16;;;;;;;;;;;;;;;15.68;62.23;98422.44;4954033;28;6968;-76
2024/01/02 09:13:42;;;;;;;;;;;;;;;15.73;62.49;98403.47;4948074;28;6776;-76
2024/01/02 09:16:08;;;;;;;;;;;;;;;15.78;61.96;98422.41;4932809;28;6858;-76
2024/01/02 09:18:33;;;;;;;;;;;;;;;15.83;61.62;98428.38;4951482;28;6784;-75
2024/01/02 09:20:59;;;;;;;;;;;;;;;15.88;61.50;98421.50;4949090;28;6925;-76
2024/01/02 09:23:25;;;;;;;;;;;;;;;15.92;61.42;98406.88;4946660;28;6776;-75
2024/01/02 09:25:51;;;;;;;;;;;;;;;15.96;61.21;98411.13;4934567;28;7287;-76
2024/01/02 09:28:20;;;;;;;;;;;;;;;15.99;61.25;98399.94;4951069;28;7149;-75
2024/01/02 09:30:46;;;;;;;;;;;;;;;16.02;60.88;98400.78;4950464;28;8166;-76
2024/01/02 09:33:12;;;;;;;;;;;;;;;16.05;60.91;98399.91;4952210;28;6919;-76
2024/01/02 09:35:37;;;;;;;;;;;;;;;16.06;60.42;98396.44;4951180;28;7201;-76
2024/01/02 09:38:06;;;;;;;;;;;;;;;16.07;60.17;98396.41;4952684;28;6769;-75
2024/01/02 09:40:59;;;;;;;;;;;;;;;16.09;60.40;98396.41;4948017;28;6800;-76
2024/01/02 09:44:06;;;;;;;;;;;;;;;16.09;60.00;98388.66;4952514;28;9627;-76
2024/01/02 09:46:34;;;;;;;;;;;;;;;16.09;60.02;98375.75;4959841;28;7003;-75
2024/01/02 09:49:48;;;;;;;;;;;;;;;16.09;59.82;98370.59;4947814;28;7572;-75
2024/01/02 09:52:53;;;;;;;;;;;;;;;16.08;59.71;98374.03;4950337;28;7096;-75
2024/01/02 09:55:59;;;;;;;;;;;;;;;16.07;59.61;98393.00;4954664;28;7270;-76
2024/01/02 09:59:14;;;;;;;;;;;;;;;16.04;59.77;98380.94;4957936;28;6811;-76
2024/01/02 10:02:01;;;;;;;;;;;;;;;16.03;59.33;98378.38;4946781;28;6991;-76
2024/01/02 10:04:41;;;;;;;;;;;;;;;16.02;59.05;98376.66;4956241;28;6819;-77
2024/01/02 10:07:58;;;;;;;;;;;;;;;16.00;59.28;98362.88;4950589;28;7037;-76
2024/01/02 10:10:36;;;;;;;;;;;;;;;15.92;58.96;98389.63;4946815;28;7031;-76
2024/01/02 10:13:24;;;;;;;;;;;;;;;15.84;58.61;98388.81;4937920;28;7695;-76
2024/01/02 10:16:09;;;;;;;;;;;;;;;15.71;59.22;98389.72;4949341;28;6863;-78
2024/01/02 10:19:10;;;;;;;;;;;;;;;15.55;59.29;98392.41;4945129;28;6937;-78
2024/01/02 10:22:21;;;;;;;;;;;;;;;15.36;60.02;98400.22;4953669;28;6896;-78
2024/01/02 10:28:13;;;;;;;;;;;;;;;15.12;60.01;98406.31;5026521;28;7065;-86
2024/01/02 10:31:02;;;;;;;;;;;;;;;15.01;60.88;98408.91;5009050;28;6834;-87
2024/01/02 10:34:04;;;;;;;;;;;;;;;14.94;60.95;98392.56;4984323;28;6987;-87
2024/01/02 10:37:03;;;;;;;;;;;;;;;14.91;61.69;98399.47;4993106;28;6959;-86
2024/01/02 10:40:05;;;;;;;;;;;;;;;14.88;60.90;98391.75;4987607;28;6960;-87
2024/01/02 10:42:41;;;;;;;;;;;;;;;14.85;61.88;98384.84;5012961;28;7254;-85
2024/01/02 10:45:35;;;;;;;;;;;;;;;14.83;61.85;98373.69;5006451;28;7007;-87
2024/01/02 10:48:36;;;;;;;;;;;;;;;14.78;61.16;98377.97;5006451;28;7524;-86
2024/01/02 10:56:29;;;;;;;;;;;;;;;14.70;61.22;98367.66;5000855;28;7017;-75
2024/01/02 10:59:32;;;;;;;;;;;;;;;14.67;61.49;98352.16;5001440;28;6800;-75
2024/01/02 11:02:36;;;;;;;;;;;;;;;14.64;61.71;98352.19;4997842;28;6889;-75
2024/01/02 11:05:31;;;;;;;;;;;;;;;14.61;62.27;98341.88;4999471;28;6812;-76
2024/01/02 11:08:21;;;;;;;;;;;;;;;14.57;61.92;98346.19;4986078;28;7057;-75
2024/01/02 11:11:07;;;;;;;;;;;;;;;14.55;61.93;98338.44;5000976;28;7195;-75
2024/01/02 11:13:38;;;;;;;;;;;;;;;14.55;61.64;98335.03;4992523;28;7000;-75
2024/01/02 11:16:14;;;;;;;;;;;;;;;14.53;61.39;98334.16;4983141;28;7015;-75
2024/01/02 11:18:44;;;;;;;;;;;;;;;14.48;61.88;98329.00;4993405;28;6808;-75
2024/01/02 11:21:38;;;;;;;;;;;;;;;14.45;61.25;98331.59;4992787;28;6989;-75
2024/01/02 11:24:08;;;;;;;;;;;;;;;14.40;62.10;98326.44;4987648;28;7111;-75
2024/01/02 11:26:40;;;;;;;;;;;;;;;14.40;61.96;98323.00;4992657;28;6939;-75
2024/01/02 11:29:16;;;;;;;;;;;;;;;14.38;61.80;98307.53;4988513;28;6972;-75
2024/01/02 11:31:44;;;;;;;;;;;;;;;14.36;61.57;98308.41;4990611;28;7138;-75
2024/01/02 11:34:27;;;;;;;;;;;;;;;14.34;61.68;98305.84;4974692;28;7190;-77
2024/01/02 11:37:31;;;;;;;;;;;;;;;14.30;61.88;98286.94;4969998;28;7235;-77
2024/01/02 11:40:18;;;;;;;;;;;;;;;14.28;61.69;98280.06;4954869;28;6998;-77
2024/01/02 11:43:05;;;;;;;;;;;;;;;14.26;61.92;98274.06;4959867;28;7161;-77
2024/01/02 11:45:37;;;;;;;;;;;;;;;14.25;61.60;98249.16;4955816;28;6796;-78
2024/01/02 11:48:34;;;;;;;;;;;;;;;14.22;62.32;98247.44;4953539;28;6792;-77
2024/01/02 11:51:19;;;;;;;;;;;;;;;14.20;61.83;98244.03;4955163;28;6792;-77
2024/01/02 11:54:22;;;;;;;;;;;;;;;14.19;62.79;98241.44;4956792;28;7279;-77
2024/01/02 11:56:48;;;;;;;;;;;;;;;14.14;61.94;98229.41;4957058;28;7171;-77
2024/01/02 11:59:45;;;;;;;;;;;;;;;14.13;62.20;98229.41;4929969;28;6984;-77
2024/01/02 12:02:42;;;;;;;;;;;;;;;14.12;62.42;98220.81;4954023;28;7219;-77
2024/01/02 12:06:03;;;;;;;;;;;;;;;14.08;62.40;98216.53;4956683;28;7080;-77
2024/01/02 12:08:38;;;;;;;;;;;;;;;14.06;62.71;98209.69;4950018;28;7019;-76
2024/01/02 12:11:08;;;;;;;;;;;;;;;14.02;62.63;98199.38;4926327;28;6998;-77
2024/01/02 12:14:18;;;;;;;;;;;;;;;14.01;61.82;98192.53;4938796;28;7044;-76
2024/01/02 12:16:46;;;;;;;;;;;;;;;13.98;62.83;98197.66;4955247;28;6820;-76
2024/01/02 12:19:22;;;;;;;;;;;;;;;13.98;62.50;98189.09;4947507;28;7248;-76
2024/01/02 12:21:54;;;;;;;;;;;;;;;13.97;62.99;98180.50;4951374;28;6808;-76
2024/01/02 12:24:21;;;;;;;;;;;;;;;13.97;63.31;98177.91;4959428;28;7004;-76
2024/01/02 12:26:52;;;;;;;;;;;;;;;13.96;63.11;98163.34;4943982;28;6985;-76
2024/01/02 12:29:48;;;;;;;;;;;;;;;13.97;62.81;98165.03;4954955;28;6880;-76
2024/01/02 12:32:50;;;;;;;;;;;;;;;13.95;62.56;98151.31;4959288;28;7073;-76
2024/01/02 12:35:31;;;;;;;;;;;;;;;13.94;62.89;98151.31;4953291;28;7940;-76
2024/01/02 12:38:18;;;;;;;;;;;;;;;13.91;62.58;98129.03;4960308;28;6792;-75
2024/01/02 12:40:47;;;;;;;;;;;;;;;13.90;63.35;98132.44;4938388;28;7057;-75
2024/01/02 12:43:20;;;;;;;;;;;;;;;13.91;63.38;98130.72;4948936;28;7333;-73
2024/01/02 12:45:54;;;;;;;;;;;;;;;13.94;63.29;98110.97;4958072;28;7242;-74
2024/01/02 12:48:24;;;;;;;;;;;;;;;13.95;63.42;98110.13;4950344;28;7245;-72
2024/01/02 12:50:53;;;;;;;;;;;;;;;13.96;62.98;98106.69;4968490;28;6959;-74
2024/01/02 12:53:24;;;;;;;;;;;;;;;13.96;62.95;98098.13;4967040;28;6917;-73
2024/01/02 12:55:57;;;;;;;;;;;;;;;13.96;63.09;98095.53;4945212;28;6995;-72
2024/01/02 12:58:25;;;;;;;;;;;;;;;13.95;62.62;98084.38;4969953;28;7385;-72
2024/01/02 13:00:51;;;;;;;;;;;;;;;13.97;63.10;98077.50;4950831;28;7437;-74
2024/01/02 13:03:17;;;;;;;;;;;;;;;13.97;63.48;98066.34;4950777;28;6940;-73
2024/01/02 13:05:45;;;;;;;;;;;;;;;13.97;63.15;98074.91;4967959;28;6833;-73
2024/01/02 13:08:19;;;;;;;;;;;;;;;13.98;63.14;98063.75;4969384;28;8281;-73
2024/01/02 13:10:46;;;;;;;;;;;;;;;13.99;63.62;98055.16;4965882;28;6860;-75
2024/01/02 13:13:15;;;;;;;;;;;;;;;13.98;64.02;98032.84;4966216;28;6785;-74
2024/01/02 13:15:52;;;;;;;;;;;;;;;14.00;63.07;98044.03;4956140;28;7375;-73
2024/01/02 13:18:21;;;;;;;;;;;;;;;14.02;63.91;98037.13;4969725;28;6924;-74
2024/01/02 13:20:48;;;;;;;;;;;;;;;14.05;64.24;98018.25;4971842;28;6995;-73
2024/01/02 13:23:14;;;;;;;;;;;;;;;14.07;63.93;98052.56;4955662;28;6796;-73